Pagina principale
METAR-TAF:

METAR-TAF

Aeroporti :

Aeroporto di Latina

Latina, Italia

latitudine: 41-33N, longitudine: 012-54E, altezza: 25 m

Osservazione

Il bollettino è stato emesso 47 minuti fa, alle 12:55 UTC
Vento 3 kt da sud/sud-est
Temperature 27°C
Umidità 84%
Pressione 1017 hPa
Visibilità 10 km o più
Nubi sparse ad un'altezza di 2000 ft

METAR: LIRL 271255Z 15003KT 9999 SCT020 27/24 Q1017 RMK BKN MON CLD CIME NC VIS MIN 9999 WIND THR12 /////KT WIND THR30 14005KT BLU

Ora: 15:42 (13:42 UTC)

Previsione

Il bollettino è stato emesso 2 ore e 3 minuti fa, alle 11:39 UTC
Previsione valida dal 27 alle 12 UTC al 27 alle 21 UTC
Vento 8 kt da est/sud-est
Visibilità 10 km o più
Nubi sparse ad un'altezza di 2000 ft
Nuvoloso ad un'altezza di 6000 ft
Temporaneamente
dal 27 alle 12 UTC al 27 alle 15 UTC
Visibilità: 5000 m
Poco nuvoloso ad un'altezza di 1800 ft, Cumulonembo.
rovesci di pioggia

TAF: LIRL 271139Z 2712/2721 12008KT 9999 SCT020 BKN060 TEMPO 2712/2715 5000 SHRA FEW018CB

Osservazioni e previsioni meteorologiche di più di 4000 aeroporti (messaggi METAR e TAF).

Le stazioni disponibili sono rappresentate dai dischi gialli e rossi sulla carta.

Puntare il mouse per vedere il nome della stazione.

Clicca sopra per visualizzare le osservazioni e previsioni meteorologiche.

Per cambiare la mappa : fare clic sui pulsanti verdi con una croce nera per ingrandire, il pulsante verde con un trattino per diminuire, o sulla freccia verde per le mappe adiacenti.


METAR-TAF: